createdAt,value
2019-03-18T00:00:18.914Z,7.80
2019-03-18T00:06:01.262Z,11.03
2019-03-18T00:08:37.313Z,5.60
2019-03-18T00:14:21.367Z,10.20
2019-03-18T00:17:01.974Z,8.40
2019-03-18T00:19:49.052Z,9.70
2019-03-18T00:22:27.696Z,10.23
2019-03-18T00:25:11.933Z,9.60
2019-03-18T00:27:53.777Z,12.57
2019-03-18T00:30:28.629Z,9.60
2019-03-18T00:36:24.116Z,9.73
2019-03-18T00:39:04.218Z,11.83
2019-03-18T00:41:37.826Z,10.90
2019-03-18T00:44:20.909Z,10.00
2019-03-18T00:46:56.078Z,7.40
2019-03-18T00:49:33.502Z,12.33
2019-03-18T00:52:27.594Z,12.00
2019-03-18T00:55:08.384Z,11.57
2019-03-18T00:57:49.949Z,12.60
2019-03-18T01:00:50.321Z,9.20
2019-03-18T01:03:40.794Z,13.37
2019-03-18T01:06:29.434Z,8.10
2019-03-18T01:09:00.547Z,9.90
2019-03-18T01:11:32.991Z,9.33
2019-03-18T01:14:15.977Z,9.00
2019-03-18T01:16:58.314Z,12.17
2019-03-18T01:19:30.643Z,12.00
2019-03-18T01:22:04.212Z,12.40
2019-03-18T01:24:35.829Z,12.07
2019-03-18T01:27:09.411Z,7.10
2019-03-18T01:29:40.407Z,8.30
2019-03-18T01:32:14.641Z,8.57
2019-03-18T01:35:03.742Z,9.40
2019-03-18T01:37:37.617Z,8.73
2019-03-18T01:40:13.910Z,9.20
2019-03-18T01:42:45.686Z,10.37
2019-03-18T01:45:18.407Z,10.00
2019-03-18T01:47:58.333Z,9.17
2019-03-18T01:50:28.023Z,14.60
2019-03-18T01:52:58.162Z,12.90
2019-03-18T01:55:32.303Z,8.27
2019-03-18T01:58:26.073Z,15.00
2019-03-18T02:01:00.446Z,8.30
2019-03-18T02:03:43.707Z,9.40
2019-03-18T02:06:17.312Z,9.87
2019-03-18T02:08:51.216Z,9.77
2019-03-18T02:11:25.513Z,9.70
2019-03-18T02:14:06.833Z,12.47
2019-03-18T02:16:41.999Z,10.27
2019-03-18T02:19:35.197Z,11.20
2019-03-18T02:22:07.417Z,9.17
2019-03-18T02:24:58.717Z,10.17
2019-03-18T02:27:51.457Z,6.97
2019-03-18T02:30:21.581Z,15.37
2019-03-18T02:33:10.681Z,12.27
2019-03-18T02:35:45.520Z,12.60
2019-03-18T02:38:28.992Z,8.60
2019-03-18T02:41:04.226Z,13.40
2019-03-18T02:43:36.304Z,12.83
2019-03-18T02:46:11.196Z,9.57
2019-03-18T02:48:43.675Z,16.13
2019-03-18T02:51:18.707Z,9.93
2019-03-18T02:53:49.397Z,14.53
2019-03-18T02:56:21.212Z,11.10
2019-03-18T02:58:55.663Z,14.30
2019-03-18T03:01:27.284Z,10.20
2019-03-18T03:03:59.507Z,12.83
2019-03-18T03:06:40.475Z,12.17
2019-03-18T03:09:27.449Z,10.80
2019-03-18T03:12:04.114Z,11.10
2019-03-18T03:14:35.879Z,11.47
2019-03-18T03:17:08.763Z,10.77
2019-03-18T03:19:40.451Z,16.03
2019-03-18T03:22:16.750Z,13.37
2019-03-18T03:24:57.320Z,11.63
2019-03-18T03:30:23.826Z,15.63
2019-03-18T03:33:26.552Z,13.90
2019-03-18T03:36:01.818Z,11.67
2019-03-18T03:38:39.032Z,11.13
2019-03-18T03:41:29.582Z,9.57
2019-03-18T03:44:18.132Z,14.37
2019-03-18T03:47:25.514Z,12.30
2019-03-18T03:50:18.223Z,14.80
2019-03-18T03:53:56.749Z,13.03
2019-03-18T03:56:29.818Z,12.97
2019-03-18T03:59:02.951Z,16.53
2019-03-18T04:01:37.948Z,15.17
2019-03-18T04:04:28.444Z,16.97
2019-03-18T04:07:31.224Z,12.63
2019-03-18T04:10:10.989Z,14.83
2019-03-18T04:12:45.668Z,11.10
2019-03-18T04:15:22.294Z,14.43
2019-03-18T04:18:07.669Z,13.80
2019-03-18T04:20:41.558Z,12.13
2019-03-18T04:23:13.620Z,14.87
2019-03-18T04:25:48.493Z,13.90
2019-03-18T04:28:21.757Z,17.53
2019-03-18T04:31:01.547Z,12.07
2019-03-18T04:33:38.932Z,15.17
2019-03-18T04:36:17.851Z,12.07
2019-03-18T04:38:52.132Z,14.73
2019-03-18T04:41:27.235Z,15.07
2019-03-18T04:44:03.831Z,14.30
2019-03-18T04:46:35.319Z,16.20
2019-03-18T04:49:05.658Z,18.60
2019-03-18T04:51:39.218Z,10.00
2019-03-18T04:54:10.970Z,13.30
2019-03-18T04:56:45.087Z,12.53
2019-03-18T05:02:29.891Z,12.00
2019-03-18T05:05:05.333Z,13.90
2019-03-18T05:07:37.402Z,9.93
2019-03-18T05:10:09.647Z,10.23
2019-03-18T05:12:45.761Z,14.10
2019-03-18T05:18:12.538Z,16.37
2019-03-18T05:20:46.092Z,9.87
2019-03-18T05:23:18.755Z,12.87
2019-03-18T05:25:49.354Z,11.47
2019-03-18T05:28:20.394Z,13.67
2019-03-18T05:31:05.125Z,14.37
2019-03-18T05:33:45.180Z,9.87
2019-03-18T05:36:16.847Z,12.33
2019-03-18T05:39:04.770Z,10.53
2019-03-18T05:42:14.684Z,9.40
2019-03-18T05:44:57.824Z,11.13
2019-03-18T05:47:39.238Z,11.60
2019-03-18T05:50:23.027Z,8.43
2019-03-18T05:53:44.100Z,10.07
2019-03-18T05:56:15.506Z,12.17
2019-03-18T05:59:05.885Z,8.97
2019-03-18T06:04:57.563Z,14.13
2019-03-18T06:08:04.274Z,8.80
2019-03-18T06:10:37.598Z,13.53
2019-03-18T06:13:19.959Z,14.17
2019-03-18T06:15:51.177Z,11.93
2019-03-18T06:18:43.631Z,10.90
2019-03-18T06:21:21.366Z,13.73
2019-03-18T06:24:06.987Z,11.10
2019-03-18T06:27:36.970Z,11.10
2019-03-18T06:30:18.525Z,12.47
2019-03-18T06:33:11.821Z,9.33
2019-03-18T06:36:07.470Z,6.23
2019-03-18T06:38:41.389Z,6.80
2019-03-18T06:41:37.839Z,8.17
2019-03-18T06:44:29.908Z,6.50
2019-03-18T06:47:48.398Z,12.47
2019-03-18T06:50:21.682Z,11.30
2019-03-18T06:53:12.021Z,5.83
2019-03-18T07:03:29.953Z,10.93
2019-03-18T07:06:32.862Z,7.47
2019-03-18T07:09:26.755Z,11.00
2019-03-18T07:11:58.581Z,11.80
2019-03-18T07:14:27.483Z,10.03
2019-03-18T07:16:58.006Z,7.03
2019-03-18T07:19:29.645Z,11.57
2019-03-18T07:22:07.428Z,8.73
2019-03-18T07:24:39.510Z,11.40
2019-03-18T07:27:16.370Z,7.33
2019-03-18T07:29:55.685Z,7.23
2019-03-18T07:32:26.075Z,5.73
2019-03-18T07:34:55.843Z,7.73
2019-03-18T07:37:25.309Z,5.47
2019-03-18T07:39:55.322Z,5.43
2019-03-18T07:42:29.677Z,9.63
2019-03-18T07:45:03.170Z,8.53
2019-03-18T07:47:38.101Z,6.90
2019-03-18T07:50:18.366Z,11.30
2019-03-18T07:52:56.095Z,8.40
2019-03-18T07:55:28.234Z,6.53
2019-03-18T07:57:57.493Z,11.73
2019-03-18T08:00:27.679Z,6.90
2019-03-18T08:03:03.909Z,8.27
2019-03-18T08:05:55.708Z,11.80
2019-03-18T08:08:43.935Z,9.47
2019-03-18T08:11:13.216Z,10.43
2019-03-18T08:13:48.657Z,9.73
2019-03-18T08:16:21.795Z,9.50
2019-03-18T08:18:53.132Z,10.10
2019-03-18T08:21:24.092Z,10.83
2019-03-18T08:23:55.295Z,8.40
2019-03-18T08:26:27.863Z,8.37
2019-03-18T08:28:57.564Z,7.77
2019-03-18T08:31:26.959Z,10.83
2019-03-18T08:33:56.482Z,11.47
2019-03-18T08:36:28.446Z,10.10
2019-03-18T08:38:59.159Z,10.83
2019-03-18T08:41:30.864Z,10.50
2019-03-18T08:44:01.076Z,9.00
2019-03-18T08:46:31.495Z,6.83
2019-03-18T08:49:01.103Z,11.87
2019-03-18T08:51:32.339Z,11.83
2019-03-18T08:54:23.836Z,10.90
2019-03-18T08:56:56.133Z,12.23
2019-03-18T08:59:27.690Z,13.70
2019-03-18T09:01:57.938Z,11.87
2019-03-18T09:04:28.482Z,11.73
2019-03-18T09:06:58.882Z,12.03
2019-03-18T09:09:28.262Z,10.27
2019-03-18T09:11:58.042Z,13.10
2019-03-18T09:14:32.544Z,16.30
2019-03-18T09:17:02.192Z,14.00
2019-03-18T09:19:33.441Z,11.50
2019-03-18T09:22:03.304Z,10.33
2019-03-18T09:24:33.516Z,7.67
2019-03-18T09:27:04.497Z,10.87
2019-03-18T09:29:34.522Z,12.67
2019-03-18T09:32:07.317Z,9.80
2019-03-18T09:34:37.158Z,12.27
2019-03-18T09:37:27.711Z,11.03
2019-03-18T09:39:59.305Z,12.37
2019-03-18T09:42:31.129Z,14.37
2019-03-18T09:45:12.638Z,11.63
2019-03-18T09:47:43.063Z,11.57
2019-03-18T09:50:18.094Z,11.40
2019-03-18T09:52:53.117Z,11.23
2019-03-18T09:55:38.194Z,8.97
2019-03-18T09:58:09.242Z,11.73
2019-03-18T10:00:38.658Z,12.70
2019-03-18T10:03:09.597Z,19.50
2019-03-18T10:05:39.874Z,9.33
2019-03-18T10:08:12.905Z,8.90
2019-03-18T10:10:52.662Z,10.27
2019-03-18T10:13:30.322Z,11.00
2019-03-18T10:16:02.730Z,8.00
2019-03-18T10:18:35.944Z,13.90
2019-03-18T10:21:06.686Z,12.17
2019-03-18T10:23:38.223Z,12.30
2019-03-18T10:26:43.208Z,12.70
2019-03-18T10:29:14.244Z,7.50
2019-03-18T10:31:45.307Z,10.00
2019-03-18T10:34:54.519Z,13.77
2019-03-18T10:37:26.621Z,11.70
2019-03-18T10:40:17.169Z,10.47
2019-03-18T10:42:51.057Z,10.80
2019-03-18T10:45:35.734Z,9.77
2019-03-18T10:48:19.776Z,8.50
2019-03-18T10:50:51.743Z,12.13
2019-03-18T10:53:30.400Z,8.73
2019-03-18T10:58:59.039Z,8.97
2019-03-18T11:01:36.774Z,13.43
2019-03-18T11:04:07.074Z,8.97
2019-03-18T11:06:39.813Z,8.50
2019-03-18T11:09:13.061Z,8.97
2019-03-18T11:11:44.199Z,6.93
2019-03-18T11:14:16.291Z,6.00
2019-03-18T11:16:52.554Z,6.80
2019-03-18T11:19:23.308Z,9.80
2019-03-18T11:21:55.697Z,7.87
2019-03-18T11:24:30.254Z,5.50
2019-03-18T11:27:21.616Z,8.47
2019-03-18T11:29:52.433Z,5.33
2019-03-18T11:32:24.178Z,5.47
2019-03-18T11:35:03.276Z,6.77
2019-03-18T11:37:33.537Z,8.20
2019-03-18T11:40:04.357Z,4.97
2019-03-18T11:42:45.019Z,10.83
2019-03-18T11:45:33.874Z,4.23
2019-03-18T11:48:29.125Z,5.63
2019-03-18T11:51:02.967Z,6.97
2019-03-18T11:53:54.466Z,4.73
2019-03-18T11:56:34.229Z,2.47
2019-03-18T11:59:01.116Z,3.50
2019-03-18T12:02:01.713Z,2.17
2019-03-18T12:04:34.882Z,1.73
2019-03-18T12:07:05.568Z,3.57
2019-03-18T12:09:37.025Z,3.23
2019-03-18T12:12:06.597Z,1.10
2019-03-18T12:14:41.082Z,2.23
2019-03-18T12:17:13.169Z,4.20
2019-03-18T12:19:42.821Z,2.30
2019-03-18T12:22:17.129Z,3.20
2019-03-18T12:24:48.083Z,3.97
2019-03-18T12:27:19.390Z,5.37
2019-03-18T12:29:48.448Z,4.97
2019-03-18T12:32:21.498Z,4.10
2019-03-18T12:34:55.878Z,1.87
2019-03-18T12:37:27.764Z,3.63
2019-03-18T12:39:57.801Z,2.10
2019-03-18T12:42:27.076Z,3.00
2019-03-18T12:44:58.249Z,2.40
2019-03-18T12:47:28.326Z,2.70
2019-03-18T12:50:03.007Z,2.70
2019-03-18T12:52:33.426Z,2.03
2019-03-18T12:55:04.716Z,2.30
2019-03-18T12:57:38.584Z,2.37
2019-03-18T13:00:10.822Z,1.80
2019-03-18T13:02:42.060Z,2.80
2019-03-18T13:05:11.555Z,4.27
2019-03-18T13:07:43.367Z,1.97
2019-03-18T13:10:13.843Z,2.53
2019-03-18T13:12:45.550Z,1.30
2019-03-18T13:15:16.261Z,1.93
2019-03-18T13:17:49.878Z,1.80
2019-03-18T13:20:19.203Z,1.50
2019-03-18T13:23:05.032Z,3.03
2019-03-18T13:25:34.405Z,4.00
2019-03-18T13:28:09.345Z,1.77
2019-03-18T13:30:41.310Z,4.27
2019-03-18T13:33:11.053Z,2.93
2019-03-18T13:35:43.043Z,1.50
2019-03-18T13:38:13.780Z,2.57
2019-03-18T13:40:45.986Z,2.23
2019-03-18T13:43:15.431Z,2.37
2019-03-18T13:45:54.684Z,3.10
2019-03-18T13:48:19.878Z,4.17
2019-03-18T13:50:49.054Z,2.93
2019-03-18T13:53:21.971Z,2.07
2019-03-18T13:55:51.667Z,3.63
2019-03-18T13:58:29.690Z,2.00
2019-03-18T14:01:00.346Z,3.20
2019-03-18T14:03:39.582Z,5.10
2019-03-18T14:06:10.997Z,2.93
2019-03-18T14:08:42.700Z,3.37
2019-03-18T14:11:14.068Z,4.33
2019-03-18T14:13:43.215Z,4.07
2019-03-18T14:16:12.183Z,4.73
2019-03-18T14:18:43.743Z,3.30
2019-03-18T14:21:14.121Z,2.33
2019-03-18T14:23:43.578Z,3.77
2019-03-18T14:26:12.978Z,3.93
2019-03-18T14:28:42.375Z,1.50
2019-03-18T14:31:11.727Z,4.23
2019-03-18T14:33:41.581Z,1.97
2019-03-18T14:36:18.845Z,3.97
2019-03-18T14:38:51.538Z,2.93
2019-03-18T14:41:26.982Z,2.27
2019-03-18T14:44:02.246Z,0.70
2019-03-18T14:46:32.396Z,3.23
2019-03-18T14:49:05.959Z,1.80
2019-03-18T14:51:45.657Z,1.23
2019-03-18T14:54:19.356Z,1.57
2019-03-18T14:56:49.683Z,1.70
2019-03-18T14:59:22.318Z,2.67
2019-03-18T15:01:51.590Z,2.80
2019-03-18T15:04:21.318Z,1.07
2019-03-18T15:07:02.758Z,1.87
2019-03-18T15:09:36.042Z,2.80
2019-03-18T15:12:08.209Z,1.77
2019-03-18T15:14:47.636Z,1.80
2019-03-18T15:17:18.593Z,1.77
2019-03-18T15:19:50.714Z,3.83
2019-03-18T15:22:20.379Z,2.23
2019-03-18T15:24:53.208Z,2.33
2019-03-18T15:27:22.741Z,3.00
2019-03-18T15:29:52.853Z,2.63
2019-03-18T15:32:21.838Z,2.07
2019-03-18T15:34:55.093Z,2.47
2019-03-18T15:37:24.370Z,2.50
2019-03-18T15:39:53.690Z,3.43
2019-03-18T15:42:23.209Z,2.23
2019-03-18T15:44:53.993Z,4.10
2019-03-18T15:47:23.081Z,3.00
2019-03-18T15:49:52.797Z,2.57
2019-03-18T15:52:21.788Z,2.13
2019-03-18T15:54:54.119Z,1.87
2019-03-18T15:57:29.425Z,2.57
2019-03-18T15:59:56.138Z,4.70
2019-03-18T16:02:25.445Z,2.40
2019-03-18T16:04:54.784Z,4.40
2019-03-18T16:07:23.808Z,3.90
2019-03-18T16:09:53.471Z,2.70
2019-03-18T16:12:22.918Z,2.17
2019-03-18T16:14:55.346Z,2.33
2019-03-18T16:17:25.754Z,3.60
2019-03-18T16:19:56.019Z,2.77
2019-03-18T16:22:29.792Z,1.00
2019-03-18T16:25:00.646Z,1.23
2019-03-18T16:27:29.922Z,4.93
2019-03-18T16:29:59.078Z,3.60
2019-03-18T16:32:28.770Z,2.90
2019-03-18T16:34:57.705Z,4.53
2019-03-18T16:38:13.090Z,1.57
2019-03-18T16:41:07.077Z,2.97
2019-03-18T16:43:47.992Z,1.83
2019-03-18T16:46:19.033Z,3.43
2019-03-18T16:49:09.108Z,3.03
2019-03-18T16:51:43.719Z,0.80
2019-03-18T16:54:42.616Z,2.63
2019-03-18T16:57:15.879Z,3.00
2019-03-18T16:59:46.557Z,1.43
2019-03-18T17:02:53.404Z,2.53
2019-03-18T17:05:22.715Z,2.87
2019-03-18T17:07:55.086Z,4.07
2019-03-18T17:10:25.749Z,2.30
2019-03-18T17:13:02.903Z,3.70
2019-03-18T17:15:35.804Z,2.03
2019-03-18T17:18:09.019Z,1.20
2019-03-18T17:20:44.568Z,2.13
2019-03-18T17:23:22.132Z,2.47
2019-03-18T17:25:55.017Z,1.03
2019-03-18T17:28:32.135Z,1.73
2019-03-18T17:31:09.321Z,3.20
2019-03-18T17:34:14.030Z,0.97
2019-03-18T17:36:49.003Z,4.40
2019-03-18T17:39:20.466Z,4.37
2019-03-18T17:41:49.405Z,2.57
2019-03-18T17:44:26.447Z,2.47
2019-03-18T17:47:07.408Z,1.80
2019-03-18T17:49:40.339Z,0.90
2019-03-18T17:52:12.641Z,1.83
2019-03-18T17:54:55.494Z,2.20
2019-03-18T17:57:29.007Z,1.27
2019-03-18T18:00:05.265Z,1.00
2019-03-18T18:02:37.448Z,8.77
2019-03-18T18:05:08.281Z,2.40
2019-03-18T18:07:45.847Z,2.03
2019-03-18T18:10:36.804Z,1.27
2019-03-18T18:16:37.629Z,1.63
2019-03-18T18:19:09.890Z,2.67
2019-03-18T18:21:42.241Z,2.10
2019-03-18T18:24:19.739Z,3.80
2019-03-18T18:26:50.868Z,3.10
2019-03-18T18:29:24.824Z,3.00
2019-03-18T18:31:56.548Z,1.53
2019-03-18T18:34:36.939Z,2.60
2019-03-18T18:37:08.183Z,3.57
2019-03-18T18:39:37.638Z,1.93
2019-03-18T18:42:30.243Z,1.80
2019-03-18T18:45:01.074Z,2.00
2019-03-18T18:47:30.049Z,3.10
2019-03-18T18:50:00.889Z,2.67
2019-03-18T18:52:36.459Z,2.63
2019-03-18T18:55:16.387Z,3.97
2019-03-18T18:57:48.729Z,1.97
2019-03-18T19:00:25.849Z,1.73
2019-03-18T19:02:59.198Z,4.00
2019-03-18T19:05:28.945Z,2.80
2019-03-18T19:08:24.546Z,2.17
2019-03-18T19:10:55.156Z,2.20
2019-03-18T19:13:39.858Z,2.80
2019-03-18T19:16:09.178Z,2.13
2019-03-18T19:18:39.490Z,2.17
2019-03-18T19:21:09.782Z,2.70
2019-03-18T19:23:39.127Z,3.23
2019-03-18T19:26:49.996Z,4.43
2019-03-18T19:29:21.987Z,3.97
2019-03-18T19:31:56.079Z,4.83
2019-03-18T19:34:39.285Z,3.07
2019-03-18T19:37:10.985Z,2.23
2019-03-18T19:39:43.624Z,4.33
2019-03-18T19:42:13.530Z,3.87
2019-03-18T19:44:46.578Z,6.03
2019-03-18T19:47:19.968Z,4.50
2019-03-18T19:49:54.657Z,2.50
2019-03-18T19:52:23.910Z,2.93
2019-03-18T19:54:52.864Z,3.97
2019-03-18T19:57:32.664Z,3.13
2019-03-18T20:00:02.005Z,3.77
2019-03-18T20:02:42.442Z,3.83
2019-03-18T20:05:18.808Z,6.20
2019-03-18T20:07:48.147Z,3.13
2019-03-18T20:10:29.169Z,15.60
2019-03-18T20:12:58.418Z,2.07
2019-03-18T20:15:27.770Z,2.20
2019-03-18T20:17:58.559Z,5.03
2019-03-18T20:20:29.217Z,5.57
2019-03-18T20:23:03.075Z,3.27
2019-03-18T20:25:36.144Z,2.67
2019-03-18T20:28:06.291Z,2.93
2019-03-18T20:30:35.998Z,3.83
2019-03-18T20:33:11.214Z,5.23
2019-03-18T20:35:43.903Z,4.37
2019-03-18T20:38:14.796Z,2.23
2019-03-18T20:40:43.822Z,4.23
2019-03-18T20:43:16.985Z,2.73
2019-03-18T20:45:51.497Z,1.53
2019-03-18T20:48:42.753Z,2.37
2019-03-18T20:51:24.014Z,6.20
2019-03-18T20:53:59.868Z,4.90
2019-03-18T20:56:30.882Z,1.80
2019-03-18T20:59:04.289Z,4.00
2019-03-18T21:01:35.821Z,5.47
2019-03-18T21:04:10.443Z,5.77
2019-03-18T21:06:42.058Z,4.43
2019-03-18T21:09:34.655Z,4.77
2019-03-18T21:12:04.890Z,5.10
2019-03-18T21:14:34.182Z,4.87
2019-03-18T21:17:08.601Z,3.87
2019-03-18T21:19:39.498Z,5.80
2019-03-18T21:22:09.257Z,4.53
2019-03-18T21:24:38.879Z,4.93
2019-03-18T21:27:08.266Z,3.67
2019-03-18T21:29:38.493Z,6.90
2019-03-18T21:32:08.786Z,7.00
2019-03-18T21:34:45.991Z,3.50
2019-03-18T21:37:15.703Z,5.63
2019-03-18T21:39:44.877Z,4.37
2019-03-18T21:42:16.543Z,5.07
2019-03-18T21:44:48.234Z,4.80
2019-03-18T21:47:20.065Z,3.50
2019-03-18T21:50:03.658Z,4.67
2019-03-18T21:52:34.425Z,4.60
2019-03-18T21:55:04.407Z,3.93
2019-03-18T21:57:39.397Z,4.10
2019-03-18T22:00:17.182Z,8.63
2019-03-18T22:02:47.631Z,4.40
2019-03-18T22:05:27.046Z,4.07
2019-03-18T22:08:04.520Z,5.40
2019-03-18T22:10:48.197Z,4.47
2019-03-18T22:13:46.416Z,4.00
2019-03-18T22:16:16.977Z,4.47
2019-03-18T22:19:06.124Z,7.63
2019-03-18T22:21:42.110Z,4.67
2019-03-18T22:24:14.105Z,5.73
2019-03-18T22:26:47.796Z,2.73
2019-03-18T22:29:21.871Z,4.97
2019-03-18T22:31:56.870Z,3.43
2019-03-18T22:34:40.499Z,3.80
2019-03-18T22:37:11.805Z,3.97
2019-03-18T22:40:00.738Z,3.60
2019-03-18T22:42:31.857Z,6.10
2019-03-18T22:45:04.370Z,2.63
2019-03-18T22:47:33.909Z,5.33
2019-03-18T22:50:05.315Z,8.43
2019-03-18T22:52:53.622Z,3.90
2019-03-18T22:55:25.768Z,4.20
2019-03-18T22:58:15.625Z,4.73
2019-03-18T23:01:15.980Z,5.23
2019-03-18T23:04:26.795Z,3.93
2019-03-18T23:06:58.428Z,3.00
2019-03-18T23:09:32.490Z,3.60
2019-03-18T23:16:25.650Z,4.97
2019-03-18T23:19:06.441Z,2.83
2019-03-18T23:22:06.567Z,5.17
2019-03-18T23:24:53.884Z,5.17
2019-03-18T23:27:31.975Z,3.27
2019-03-18T23:30:02.787Z,5.93
2019-03-18T23:32:31.915Z,5.93
2019-03-18T23:35:03.044Z,5.40
2019-03-18T23:37:33.809Z,5.07
2019-03-18T23:40:02.811Z,6.57
2019-03-18T23:42:33.306Z,4.87
2019-03-18T23:45:03.498Z,5.17
2019-03-18T23:47:32.879Z,7.23
2019-03-18T23:50:02.113Z,3.90
2019-03-18T23:52:31.322Z,5.20
2019-03-18T23:55:00.267Z,5.60
2019-03-18T23:57:29.272Z,5.70
2019-03-18T23:59:58.330Z,1.87
